Time;durP1;ratioP1;P1;durP2;ratioP2;P2;SDS_P1;SDS_P2;PMS_P1;PMS_P2;Temp;Humidity;BMP_temperature;BMP_pressure;BME280_temperature;BME280_humidity;BME280_pressure;Samples;Min_cycle;Max_cycle;Signal;HPM_P1;HPM_P2
2021/11/03 00:01:10;;;;;;;12.15;10.85;;;6.80;1.00;;;;;;5135666;27;20250;-77
2021/11/03 00:03:37;;;;;;;12.05;9.95;;;6.80;1.00;;;;;;5137273;27;20223;-77
2021/11/03 00:06:04;;;;;;;10.93;9.80;;;6.70;1.00;;;;;;5140363;27;20222;-79
2021/11/03 00:08:31;;;;;;;13.85;12.43;;;6.70;1.00;;;;;;5140073;27;20205;-77
2021/11/03 00:10:58;;;;;;;13.20;11.57;;;6.60;1.00;;;;;;5140354;27;20194;-77
2021/11/03 00:13:27;;;;;;;13.75;11.77;;;6.70;1.00;;;;;;5142478;27;20652;-75
2021/11/03 00:15:56;;;;;;;11.15;10.05;;;6.70;1.00;;;;;;5138207;27;20231;-76
2021/11/03 00:18:23;;;;;;;11.52;10.25;;;6.60;1.00;;;;;;5139773;27;20199;-77
2021/11/03 00:20:50;;;;;;;14.20;11.90;;;6.60;1.00;;;;;;5134018;27;20241;-77
2021/11/03 00:23:17;;;;;;;13.70;11.40;;;6.60;1.00;;;;;;5134240;27;20246;-76
2021/11/03 00:25:46;;;;;;;13.32;11.93;;;6.60;1.00;;;;;;5142213;27;20270;-76
2021/11/03 00:28:14;;;;;;;11.65;10.45;;;6.60;1.00;;;;;;5137888;27;20215;-78
2021/11/03 00:30:43;;;;;;;12.90;11.18;;;6.60;1.00;;;;;;5134175;27;20211;-78
2021/11/03 00:33:10;;;;;;;11.77;10.43;;;6.60;1.00;;;;;;5137281;27;20349;-76
2021/11/03 00:35:36;;;;;;;11.82;10.35;;;6.60;1.00;;;;;;5134737;27;21636;-77
2021/11/03 00:38:03;;;;;;;12.45;10.93;;;6.60;1.00;;;;;;5139676;27;20211;-76
2021/11/03 00:40:30;;;;;;;11.75;10.55;;;6.60;1.00;;;;;;5135191;27;20207;-77
2021/11/03 00:42:57;;;;;;;11.38;9.95;;;6.60;1.00;;;;;;5136409;27;20241;-77
2021/11/03 00:45:23;;;;;;;12.70;11.45;;;6.60;1.00;;;;;;5136489;27;20966;-78
2021/11/03 00:47:52;;;;;;;11.50;10.25;;;6.60;1.00;;;;;;5136921;27;20227;-78
2021/11/03 00:50:19;;;;;;;11.80;9.52;;;6.50;1.00;;;;;;5135837;27;20208;-77
2021/11/03 00:52:45;;;;;;;11.70;10.50;;;6.50;1.00;;;;;;5134091;27;20256;-78
2021/11/03 00:55:12;;;;;;;13.35;11.02;;;6.50;1.00;;;;;;5136717;27;20266;-76
2021/11/03 00:57:39;;;;;;;11.10;10.00;;;6.50;1.00;;;;;;5140954;27;20230;-77
2021/11/03 01:00:08;;;;;;;13.38;10.65;;;6.50;1.00;;;;;;5134134;27;20213;-78
2021/11/03 01:02:35;;;;;;;11.77;10.55;;;6.50;1.00;;;;;;5136815;27;20243;-76
2021/11/03 01:05:05;;;;;;;13.25;11.82;;;6.50;1.00;;;;;;5131329;27;20229;-77
2021/11/03 01:07:32;;;;;;;12.85;10.48;;;6.50;1.00;;;;;;5115723;27;20223;-78
2021/11/03 01:09:59;;;;;;;12.73;11.40;;;6.50;1.00;;;;;;5128837;27;20219;-78
2021/11/03 01:12:25;;;;;;;12.85;10.50;;;6.50;1.00;;;;;;5115105;27;20235;-78
2021/11/03 01:14:52;;;;;;;11.48;10.18;;;6.50;1.00;;;;;;5109192;27;20333;-78
2021/11/03 01:17:19;;;;;;;12.88;11.07;;;6.50;1.00;;;;;;5107371;27;20236;-78
2021/11/03 01:19:45;;;;;;;13.05;10.90;;;6.50;1.00;;;;;;5098698;27;20238;-77
2021/11/03 01:22:13;;;;;;;12.73;10.65;;;6.50;1.00;;;;;;5116219;27;20221;-78
2021/11/03 01:24:40;;;;;;;13.15;10.70;;;6.50;1.00;;;;;;5111268;27;20227;-78
2021/11/03 01:27:07;;;;;;;12.32;10.52;;;6.40;1.00;;;;;;5112454;27;20215;-78
2021/11/03 01:29:33;;;;;;;12.00;10.05;;;6.40;1.00;;;;;;5102336;27;21040;-78
2021/11/03 01:32:00;;;;;;;11.73;9.73;;;6.30;1.00;;;;;;5100003;27;20222;-78
2021/11/03 01:34:27;;;;;;;11.68;10.13;;;6.30;1.00;;;;;;5100154;27;20222;-78
2021/11/03 01:36:53;;;;;;;11.80;10.02;;;6.30;1.00;;;;;;5078522;27;20238;-78
2021/11/03 01:39:21;;;;;;;11.70;9.75;;;6.30;1.00;;;;;;5099372;27;20369;-78
2021/11/03 01:41:48;;;;;;;11.85;10.32;;;6.30;1.00;;;;;;5098935;27;20310;-78
2021/11/03 01:44:17;;;;;;;11.57;10.27;;;6.30;1.00;;;;;;5100096;27;20214;-76
2021/11/03 01:46:48;;;;;;;13.15;10.48;;;6.20;1.00;;;;;;5082282;27;20307;-76
2021/11/03 01:49:17;;;;;;;11.40;10.30;;;6.20;1.00;;;;;;5100296;27;20210;-77
2021/11/03 01:51:48;;;;;;;11.75;10.45;;;6.10;1.00;;;;;;5110310;27;20219;-77
2021/11/03 01:54:18;;;;;;;12.43;10.13;;;6.00;1.00;;;;;;5111117;27;21127;-77
2021/11/03 01:56:47;;;;;;;11.27;10.07;;;6.00;1.00;;;;;;5103367;27;20307;-76
2021/11/03 01:59:19;;;;;;;12.88;9.80;;;5.90;1.00;;;;;;5105358;27;20215;-77
2021/11/03 02:01:46;;;;;;;11.98;10.50;;;5.80;1.00;;;;;;5084553;27;20223;-78
2021/11/03 02:04:13;;;;;;;10.80;9.70;;;5.80;1.00;;;;;;5104804;27;20345;-77
2021/11/03 02:06:40;;;;;;;10.45;9.45;;;5.70;1.00;;;;;;5108323;27;20219;-77
2021/11/03 02:09:07;;;;;;;11.85;10.23;;;5.70;1.00;;;;;;5104497;27;20219;-78
2021/11/03 02:11:34;;;;;;;11.88;10.23;;;5.60;1.00;;;;;;5118537;27;20270;-77
2021/11/03 02:14:06;;;;;;;11.90;10.00;;;5.50;1.00;;;;;;5104303;27;20378;-76
2021/11/03 02:16:36;;;;;;;11.63;9.85;;;5.50;1.00;;;;;;5101220;27;20235;-77
2021/11/03 02:19:09;;;;;;;12.18;10.13;;;5.40;1.00;;;;;;5104038;27;20298;-77
2021/11/03 02:21:43;;;;;;;11.20;9.35;;;5.30;1.00;;;;;;5106884;27;21185;-77
2021/11/03 02:24:15;;;;;;;12.77;10.60;;;5.30;1.00;;;;;;5105252;27;20229;-78
2021/11/03 02:26:47;;;;;;;11.65;10.45;;;5.20;1.00;;;;;;5103720;27;20246;-78
2021/11/03 02:29:20;;;;;;;10.85;9.60;;;5.10;1.00;;;;;;5106981;27;20303;-78
2021/11/03 02:31:52;;;;;;;12.43;11.10;;;5.10;1.00;;;;;;5102860;27;20216;-78
2021/11/03 02:34:21;;;;;;;11.65;9.50;;;5.00;1.00;;;;;;5102675;27;20364;-78
2021/11/03 02:36:53;;;;;;;11.20;10.00;;;5.00;1.00;;;;;;5084517;27;20797;-78
2021/11/03 02:39:25;;;;;;;10.98;9.80;;;4.90;1.00;;;;;;5104837;27;20219;-78
2021/11/03 02:41:54;;;;;;;14.27;12.70;;;4.90;1.00;;;;;;5102350;27;20226;-78
2021/11/03 02:44:24;;;;;;;11.43;10.23;;;5.00;1.00;;;;;;5104584;27;20229;-77
2021/11/03 02:46:50;;;;;;;15.05;10.90;;;5.00;1.00;;;;;;5099603;27;20221;-77
2021/11/03 02:49:17;;;;;;;12.00;10.57;;;5.00;1.00;;;;;;5106757;27;20222;-77
2021/11/03 02:51:45;;;;;;;12.38;11.18;;;5.00;1.00;;;;;;5099925;27;20223;-77
2021/11/03 02:54:14;;;;;;;12.27;10.50;;;5.00;1.00;;;;;;5103407;27;20330;-77
2021/11/03 02:56:44;;;;;;;12.23;10.93;;;5.00;1.00;;;;;;5101526;27;20243;-77
2021/11/03 02:59:14;;;;;;;13.65;12.25;;;4.90;1.00;;;;;;5085823;27;20218;-77
2021/11/03 03:01:44;;;;;;;11.68;10.52;;;4.90;1.00;;;;;;5102697;27;20276;-77
2021/11/03 03:04:13;;;;;;;15.73;10.88;;;4.90;1.00;;;;;;5103388;27;20808;-77
2021/11/03 03:06:41;;;;;;;12.23;10.80;;;4.80;1.00;;;;;;5083014;27;20227;-77
2021/11/03 03:09:08;;;;;;;12.95;11.65;;;4.80;1.00;;;;;;5103688;27;20915;-79
2021/11/03 03:11:38;;;;;;;12.18;10.98;;;4.90;1.00;;;;;;5108568;27;20216;-78
2021/11/03 03:14:06;;;;;;;12.45;9.88;;;4.90;1.00;;;;;;5092599;27;20232;-78
2021/11/03 03:16:34;;;;;;;10.70;9.68;;;4.80;1.00;;;;;;5109314;27;20224;-79
2021/11/03 03:19:01;;;;;;;10.40;9.30;;;4.90;1.00;;;;;;5084522;27;20223;-79
2021/11/03 03:21:29;;;;;;;14.07;10.90;;;4.90;1.00;;;;;;5107692;27;20234;-79
2021/11/03 03:23:56;;;;;;;11.65;10.45;;;4.80;1.00;;;;;;5116776;27;20227;-78
2021/11/03 03:26:23;;;;;;;14.48;11.18;;;4.80;1.00;;;;;;5094708;27;21164;-79
2021/11/03 03:28:51;;;;;;;13.23;11.40;;;4.80;1.00;;;;;;5109778;27;20621;-79
2021/11/03 03:31:19;;;;;;;11.25;9.98;;;4.80;1.00;;;;;;5104725;27;20222;-79
2021/11/03 03:33:49;;;;;;;11.50;10.40;;;4.80;1.00;;;;;;5102008;27;20615;-79
2021/11/03 03:36:16;;;;;;;13.65;10.43;;;4.70;1.00;;;;;;5102936;27;20285;-79
2021/11/03 03:38:43;;;;;;;14.07;11.15;;;4.80;1.00;;;;;;5103515;27;20227;-79
2021/11/03 03:41:10;;;;;;;11.85;10.65;;;4.80;1.00;;;;;;5103178;27;20226;-78
2021/11/03 03:43:38;;;;;;;12.60;10.95;;;4.80;1.00;;;;;;5098998;27;20218;-79
2021/11/03 03:46:05;;;;;;;11.45;10.35;;;4.70;1.00;;;;;;5103007;27;21087;-78
2021/11/03 03:48:32;;;;;;;28.08;25.35;;;4.70;1.00;;;;;;5096547;27;20534;-78
2021/11/03 03:51:00;;;;;;;12.57;10.88;;;4.60;1.00;;;;;;5100206;27;20223;-78
2021/11/03 03:53:27;;;;;;;13.27;10.52;;;4.60;1.00;;;;;;5096985;27;20223;-78
2021/11/03 03:55:54;;;;;;;12.52;11.23;;;4.50;1.00;;;;;;5102040;27;21050;-78
2021/11/03 03:58:21;;;;;;;13.20;11.25;;;4.50;1.00;;;;;;5100781;27;20235;-79
2021/11/03 04:00:49;;;;;;;12.80;11.10;;;4.40;1.00;;;;;;5105553;27;22873;-78
2021/11/03 04:03:16;;;;;;;11.30;10.20;;;4.40;1.00;;;;;;5099111;27;20772;-78
2021/11/03 04:05:44;;;;;;;12.43;11.05;;;4.30;1.00;;;;;;5102527;27;20233;-78
2021/11/03 04:08:13;;;;;;;12.05;10.57;;;4.30;1.00;;;;;;5086319;27;20219;-78
2021/11/03 04:10:41;;;;;;;11.73;10.52;;;4.30;1.00;;;;;;5106878;27;20257;-78
2021/11/03 04:13:08;;;;;;;12.43;10.00;;;4.20;1.00;;;;;;5113323;27;20796;-78
2021/11/03 04:15:35;;;;;;;12.52;11.23;;;4.20;1.00;;;;;;5113107;27;21473;-77
2021/11/03 04:18:02;;;;;;;13.43;10.95;;;4.20;1.00;;;;;;5109641;27;22048;-78
2021/11/03 04:20:30;;;;;;;11.80;10.68;;;4.10;1.00;;;;;;5112914;27;20226;-78
2021/11/03 04:22:57;;;;;;;12.10;9.63;;;4.10;1.00;;;;;;5123792;27;20223;-78
2021/11/03 04:25:25;;;;;;;13.90;11.40;;;4.00;1.00;;;;;;5111889;27;21035;-79
2021/11/03 04:27:52;;;;;;;12.55;10.95;;;3.90;1.00;;;;;;5120024;27;20222;-78
2021/11/03 04:30:21;;;;;;;12.32;10.70;;;3.90;1.00;;;;;;5112998;27;20338;-78
2021/11/03 04:32:48;;;;;;;12.82;10.75;;;3.90;1.00;;;;;;5114042;27;20222;-77
2021/11/03 04:35:16;;;;;;;14.35;12.82;;;4.00;1.00;;;;;;5112382;27;21137;-78
2021/11/03 04:37:43;;;;;;;14.57;13.05;;;4.00;1.00;;;;;;5114510;27;20247;-78
2021/11/03 04:40:13;;;;;;;14.93;11.85;;;4.00;1.00;;;;;;5110571;27;20211;-77
2021/11/03 04:42:41;;;;;;;13.07;10.73;;;4.00;1.00;;;;;;5117968;27;20674;-77
2021/11/03 04:45:10;;;;;;;20.77;13.63;;;4.00;1.00;;;;;;5116854;27;20494;-78
2021/11/03 04:47:37;;;;;;;16.65;12.30;;;4.00;1.00;;;;;;5112995;27;20238;-78
2021/11/03 04:50:06;;;;;;;14.15;12.10;;;4.00;1.00;;;;;;5110829;27;20229;-77
2021/11/03 04:52:33;;;;;;;14.52;11.50;;;4.00;1.00;;;;;;5113686;27;20257;-77
2021/11/03 04:55:00;;;;;;;13.38;11.82;;;4.00;1.00;;;;;;5109533;27;20245;-79
2021/11/03 04:57:27;;;;;;;13.70;12.30;;;4.00;1.00;;;;;;5111619;27;20242;-77
2021/11/03 04:59:56;;;;;;;15.57;12.65;;;3.90;1.00;;;;;;5110233;27;20231;-78
2021/11/03 05:02:24;;;;;;;12.85;11.52;;;3.90;1.00;;;;;;5107741;27;20223;-77
2021/11/03 05:04:51;;;;;;;13.82;11.57;;;3.80;1.00;;;;;;5103550;27;20228;-77
2021/11/03 05:07:18;;;;;;;14.43;12.07;;;3.70;1.00;;;;;;5113457;27;20226;-78
2021/11/03 05:09:44;;;;;;;10.63;9.60;;;3.70;1.00;;;;;;5108683;27;21737;-77
2021/11/03 05:12:11;;;;;;;15.20;12.15;;;3.70;1.00;;;;;;5107539;27;20296;-77
2021/11/03 05:14:38;;;;;;;13.57;11.77;;;3.70;1.00;;;;;;5103983;27;21200;-77
2021/11/03 05:17:06;;;;;;;17.58;14.65;;;3.80;1.00;;;;;;5108808;27;20326;-77
2021/11/03 05:19:33;;;;;;;14.75;12.68;;;3.80;1.00;;;;;;5110748;27;20297;-76
2021/11/03 05:22:04;;;;;;;18.48;15.07;;;3.80;1.00;;;;;;5131313;27;20210;-77
2021/11/03 05:24:31;;;;;;;23.77;21.38;;;3.80;1.00;;;;;;5120089;27;20227;-77
2021/11/03 05:26:58;;;;;;;14.07;12.68;;;3.80;1.00;;;;;;5110960;27;20864;-78
2021/11/03 05:29:25;;;;;;;11.98;10.68;;;3.90;1.00;;;;;;5108355;27;20218;-78
2021/11/03 05:31:52;;;;;;;16.80;11.57;;;3.80;1.00;;;;;;5112496;27;20242;-78
2021/11/03 05:34:20;;;;;;;13.45;12.05;;;3.70;1.00;;;;;;5103957;27;20230;-78
2021/11/03 05:36:47;;;;;;;14.98;13.55;;;3.70;1.00;;;;;;5104466;27;20225;-78
2021/11/03 05:39:17;;;;;;;13.45;12.10;;;3.70;1.00;;;;;;5108019;27;20223;-78
2021/11/03 05:41:44;;;;;;;13.70;12.30;;;3.60;1.00;;;;;;5112344;27;20246;-78
2021/11/03 05:44:13;;;;;;;14.98;12.07;;;3.60;1.00;;;;;;5112615;27;20228;-80
2021/11/03 05:46:42;;;;;;;16.88;12.55;;;3.50;1.00;;;;;;5112930;27;20225;-77
2021/11/03 05:49:11;;;;;;;13.45;12.05;;;3.50;1.00;;;;;;5117677;27;21156;-77
2021/11/03 05:51:39;;;;;;;13.43;11.20;;;3.50;1.00;;;;;;5107524;27;20215;-78
2021/11/03 05:54:07;;;;;;;12.43;11.13;;;3.50;1.00;;;;;;5102757;27;20985;-79
2021/11/03 05:56:35;;;;;;;13.70;11.15;;;3.50;1.00;;;;;;5103503;27;20351;-77
2021/11/03 05:59:02;;;;;;;14.75;11.27;;;3.50;1.00;;;;;;5104556;27;20338;-78
2021/11/03 06:01:29;;;;;;;13.07;10.30;;;3.50;1.00;;;;;;5101888;27;20224;-79
2021/11/03 06:03:56;;;;;;;13.68;11.07;;;3.40;1.00;;;;;;5106240;27;20219;-78
2021/11/03 06:06:23;;;;;;;12.95;10.48;;;3.40;1.00;;;;;;5103753;27;20760;-78
2021/11/03 06:08:52;;;;;;;13.18;10.85;;;3.30;1.00;;;;;;5105331;27;20276;-77
2021/11/03 06:11:23;;;;;;;13.10;10.85;;;3.30;1.00;;;;;;5113478;27;20387;-78
2021/11/03 06:13:50;;;;;;;14.15;12.40;;;3.20;1.00;;;;;;5106988;27;20231;-78
2021/11/03 06:16:17;;;;;;;13.35;10.95;;;3.20;1.00;;;;;;5120822;27;20221;-78
2021/11/03 06:18:44;;;;;;;14.00;10.95;;;3.20;1.00;;;;;;5121121;27;20231;-79
2021/11/03 06:21:11;;;;;;;12.70;9.98;;;3.10;1.00;;;;;;5109212;27;20238;-77
2021/11/03 06:23:38;;;;;;;11.60;10.35;;;3.10;1.00;;;;;;5108090;27;20224;-77
2021/11/03 06:26:06;;;;;;;13.23;10.40;;;3.10;1.00;;;;;;5104470;27;20211;-78
2021/11/03 06:28:33;;;;;;;11.88;10.10;;;3.10;1.00;;;;;;5105676;27;20223;-80
2021/11/03 06:31:00;;;;;;;16.20;11.25;;;3.10;1.00;;;;;;5109817;27;20284;-77
2021/11/03 06:33:27;;;;;;;13.02;10.73;;;3.10;1.00;;;;;;5105250;27;20246;-77
2021/11/03 06:35:57;;;;;;;19.63;12.00;;;3.20;1.00;;;;;;5105747;27;21582;-78
2021/11/03 06:38:24;;;;;;;13.02;10.85;;;3.20;1.00;;;;;;5109751;27;21052;-77
2021/11/03 06:40:52;;;;;;;13.80;10.00;;;3.20;1.00;;;;;;5102985;27;20230;-79
2021/11/03 06:43:20;;;;;;;12.23;10.80;;;3.20;1.00;;;;;;5104235;27;20283;-79
2021/11/03 06:45:47;;;;;;;15.43;11.05;;;3.30;1.00;;;;;;5100773;27;20234;-78
2021/11/03 06:48:13;;;;;;;15.80;10.88;;;3.30;1.00;;;;;;5102553;27;20211;-79
2021/11/03 06:50:40;;;;;;;19.52;17.42;;;3.40;1.00;;;;;;5104333;27;20223;-79
2021/11/03 06:53:14;;;;;;;12.15;10.35;;;3.50;1.00;;;;;;5110110;27;20219;-80
2021/11/03 06:55:42;;;;;;;13.95;12.45;;;3.50;1.00;;;;;;5106118;27;20223;-80
2021/11/03 06:58:10;;;;;;;12.38;10.18;;;3.60;1.00;;;;;;5111207;27;20237;-79
2021/11/03 07:00:40;;;;;;;23.50;18.52;;;3.60;1.00;;;;;;5111549;27;20223;-80
2021/11/03 07:03:07;;;;;;;15.18;12.30;;;3.60;1.00;;;;;;5110996;27;20265;-79
2021/11/03 07:05:35;;;;;;;21.42;19.48;;;3.70;1.00;;;;;;5110396;27;20294;-78
2021/11/03 07:08:02;;;;;;;14.50;12.10;;;3.70;1.00;;;;;;5115621;27;20230;-80
2021/11/03 07:10:32;;;;;;;16.85;12.70;;;3.80;1.00;;;;;;5112491;27;20294;-79
2021/11/03 07:12:58;;;;;;;14.30;12.07;;;3.90;1.00;;;;;;5114823;27;20229;-78
2021/11/03 07:15:26;;;;;;;14.57;12.05;;;4.00;1.00;;;;;;5130745;27;20215;-79
2021/11/03 07:17:56;;;;;;;14.07;12.25;;;4.20;1.00;;;;;;5111490;27;21100;-80
2021/11/03 07:20:24;;;;;;;16.85;12.60;;;4.40;1.00;;;;;;5113685;27;20225;-80
2021/11/03 07:22:50;;;;;;;16.90;11.98;;;4.50;1.00;;;;;;5110141;27;20275;-80
2021/11/03 07:25:20;;;;;;;13.35;11.98;;;4.80;1.00;;;;;;5114266;27;20737;-80
2021/11/03 07:27:50;;;;;;;13.50;11.93;;;5.00;1.00;;;;;;5112704;27;20310;-79
2021/11/03 07:30:19;;;;;;;14.10;11.85;;;5.10;1.00;;;;;;5115439;27;20230;-79
2021/11/03 07:32:46;;;;;;;20.15;15.23;;;5.20;1.00;;;;;;5113073;27;20234;-79
2021/11/03 07:35:14;;;;;;;19.02;13.50;;;5.30;1.00;;;;;;5112592;27;20215;-81
2021/11/03 07:37:41;;;;;;;15.77;13.50;;;5.40;1.00;;;;;;5114766;27;20707;-81
2021/11/03 07:40:10;;;;;;;14.82;13.18;;;5.50;1.00;;;;;;5119187;27;20287;-80
2021/11/03 07:42:38;;;;;;;18.90;14.15;;;5.60;1.00;;;;;;5092342;27;20230;-81
2021/11/03 07:45:06;;;;;;;16.92;12.98;;;5.80;1.00;;;;;;5107559;27;20279;-80
2021/11/03 07:47:36;;;;;;;15.10;13.00;;;6.00;1.00;;;;;;5116920;27;20462;-79
2021/11/03 07:50:03;;;;;;;17.25;12.13;;;6.10;1.00;;;;;;5108094;27;20221;-79
2021/11/03 07:52:31;;;;;;;16.98;12.82;;;6.20;1.00;;;;;;5124949;27;20234;-80
2021/11/03 07:54:57;;;;;;;17.52;12.45;;;6.20;1.00;;;;;;5118742;27;20291;-79
2021/11/03 07:57:24;;;;;;;18.45;11.57;;;6.30;1.00;;;;;;5120167;27;20223;-79
2021/11/03 07:59:51;;;;;;;13.98;12.43;;;6.30;1.00;;;;;;5128584;27;20223;-80
2021/11/03 08:02:17;;;;;;;18.20;13.10;;;6.50;1.00;;;;;;5111455;27;20246;-79
2021/11/03 08:04:44;;;;;;;14.57;12.38;;;6.50;1.00;;;;;;5116376;27;21230;-79
2021/11/03 08:07:11;;;;;;;16.25;12.23;;;6.50;1.00;;;;;;5116479;27;20302;-80
2021/11/03 08:09:44;;;;;;;15.25;12.15;;;6.50;1.00;;;;;;5113135;27;20229;-80
2021/11/03 08:12:11;;;;;;;16.38;12.02;;;6.50;1.00;;;;;;5107310;27;20393;-80
2021/11/03 08:14:39;;;;;;;20.88;13.32;;;6.50;1.00;;;;;;5126275;27;20222;-80
2021/11/03 08:17:08;;;;;;;17.10;12.85;;;6.50;1.00;;;;;;5130776;27;20242;-81
2021/11/03 08:19:41;;;;;;;15.35;12.43;;;6.60;1.00;;;;;;5122053;27;20234;-80
2021/11/03 08:22:09;;;;;;;16.00;11.90;;;6.60;1.00;;;;;;5116505;27;20857;-78
2021/11/03 08:24:36;;;;;;;15.45;11.55;;;6.80;1.00;;;;;;5114309;27;20302;-79
2021/11/03 08:27:05;;;;;;;17.85;14.82;;;7.00;1.00;;;;;;5115831;27;20230;-80
2021/11/03 08:29:32;;;;;;;18.50;13.00;;;7.00;1.00;;;;;;5113063;27;20304;-81
2021/11/03 08:31:59;;;;;;;16.55;13.15;;;7.10;1.00;;;;;;5115791;27;21120;-79
2021/11/03 08:34:31;;;;;;;14.80;12.05;;;7.10;1.00;;;;;;5119733;27;20217;-80
2021/11/03 08:37:02;;;;;;;15.73;13.02;;;7.10;1.00;;;;;;5129978;27;20318;-79
2021/11/03 08:39:29;;;;;;;16.98;11.95;;;7.10;1.00;;;;;;5107350;27;20230;-80
2021/11/03 08:41:56;;;;;;;14.70;13.20;;;7.20;1.00;;;;;;5098947;27;20316;-81
2021/11/03 08:44:25;;;;;;;14.73;12.18;;;7.20;1.00;;;;;;5112299;27;20230;-81
2021/11/03 08:46:52;;;;;;;25.38;14.23;;;7.30;1.00;;;;;;5101975;27;20308;-82
2021/11/03 08:49:19;;;;;;;14.10;12.60;;;7.40;1.00;;;;;;5108885;27;20768;-80
2021/11/03 08:51:45;;;;;;;14.32;12.70;;;7.50;1.00;;;;;;5093114;27;20233;-79
2021/11/03 08:54:12;;;;;;;18.40;12.95;;;7.70;1.00;;;;;;5092604;27;20233;-80
2021/11/03 08:56:40;;;;;;;15.10;12.63;;;7.80;1.00;;;;;;5112454;27;20223;-84
2021/11/03 08:59:07;;;;;;;18.10;13.13;;;7.90;1.00;;;;;;5111911;27;20381;-83
2021/11/03 09:01:36;;;;;;;20.73;12.70;;;8.10;1.00;;;;;;5109710;27;20224;-80
2021/11/03 09:04:03;;;;;;;17.05;13.90;;;8.20;1.00;;;;;;5110958;27;20215;-81
2021/11/03 09:06:32;;;;;;;19.27;17.48;;;8.30;1.00;;;;;;5114077;27;20211;-79
2021/11/03 09:08:58;;;;;;;13.38;12.00;;;8.40;1.00;;;;;;5115558;27;20224;-80
2021/11/03 09:11:27;;;;;;;19.85;15.20;;;8.50;1.00;;;;;;5113471;27;20222;-81
2021/11/03 09:13:54;;;;;;;14.32;12.90;;;8.60;1.00;;;;;;5128269;27;20231;-81
2021/11/03 09:16:21;;;;;;;18.65;13.48;;;8.80;1.00;;;;;;5127363;27;20254;-84
2021/11/03 09:18:56;;;;;;;13.70;11.70;;;8.90;1.00;;;;;;5131057;27;20237;-81
2021/11/03 09:21:23;;;;;;;15.13;12.60;;;9.10;1.00;;;;;;5107806;27;20315;-81
2021/11/03 09:23:50;;;;;;;15.98;13.40;;;9.10;1.00;;;;;;5111190;27;20243;-80
2021/11/03 09:26:19;;;;;;;29.90;13.57;;;9.30;1.00;;;;;;5092184;27;20710;-80
2021/11/03 09:28:47;;;;;;;16.42;13.15;;;9.50;1.00;;;;;;5104439;27;20218;-79
2021/11/03 09:31:15;;;;;;;12.77;11.52;;;9.60;1.00;;;;;;5112386;27;20302;-82
2021/11/03 09:33:42;;;;;;;14.57;12.33;;;9.80;1.00;;;;;;5115920;27;20236;-80
2021/11/03 09:36:14;;;;;;;13.57;12.17;;;9.90;1.00;;;;;;5121899;27;20496;-82
2021/11/03 09:38:41;;;;;;;18.80;15.77;;;10.00;1.00;;;;;;5106784;27;20492;-82
2021/11/03 09:41:13;;;;;;;16.53;12.57;;;10.10;1.00;;;;;;5113520;27;20458;-81
2021/11/03 09:43:42;;;;;;;18.63;14.00;;;10.00;1.00;;;;;;5085469;27;20457;-81
2021/11/03 09:46:19;;;;;;;15.40;12.23;;;10.20;1.00;;;;;;5114518;27;20297;-82
2021/11/03 09:48:49;;;;;;;31.07;27.77;;;10.30;1.00;;;;;;5094472;27;23476;-81
2021/11/03 09:51:22;;;;;;;12.83;11.53;;;10.50;1.00;;;;;;5120043;27;20470;-81
2021/11/03 09:53:52;;;;;;;29.80;21.60;;;10.60;1.00;;;;;;5119112;27;20504;-81
2021/11/03 09:56:24;;;;;;;13.63;12.23;;;10.70;1.00;;;;;;5121276;27;21350;-81
2021/11/03 09:59:00;;;;;;;14.77;11.20;;;10.80;1.00;;;;;;5103216;27;21225;-83
2021/11/03 10:01:39;;;;;;;14.20;12.70;;;10.90;1.00;;;;;;5113189;27;20517;-81
2021/11/03 10:04:21;;;;;;;12.57;11.27;;;11.10;1.00;;;;;;5107550;27;20457;-80
2021/11/03 10:06:59;;;;;;;12.30;11.07;;;11.20;1.00;;;;;;5108459;27;20450;-80
2021/11/03 10:09:26;;;;;;;13.97;12.47;;;11.40;1.00;;;;;;5113485;27;20533;-83
2021/11/03 10:11:53;;;;;;;13.60;12.27;;;11.50;1.00;;;;;;5121874;27;20417;-81
2021/11/03 10:14:21;;;;;;;14.60;13.10;;;11.60;1.00;;;;;;5134487;27;20433;-82
2021/11/03 10:16:50;;;;;;;14.07;12.57;;;11.60;1.00;;;;;;5115630;27;20448;-82
2021/11/03 10:19:29;;;;;;;13.97;12.53;;;11.70;1.00;;;;;;5109651;27;20507;-82
2021/11/03 10:22:00;;;;;;;13.60;12.30;;;11.90;1.00;;;;;;5109045;27;21100;-81
2021/11/03 10:24:37;;;;;;;12.40;11.10;;;11.90;1.00;;;;;;5112983;27;20464;-83
2021/11/03 10:27:17;;;;;;;13.90;11.80;;;12.00;1.00;;;;;;5091542;27;20526;-82
2021/11/03 10:29:48;;;;;;;12.27;11.20;;;11.90;1.00;;;;;;5092241;27;21256;-77
2021/11/03 10:32:25;;;;;;;16.17;12.83;;;11.70;1.00;;;;;;5102002;27;20603;-81
2021/11/03 10:35:06;;;;;;;12.60;10.97;;;11.90;1.00;;;;;;5102244;27;21299;-79
2021/11/03 10:37:39;;;;;;;14.73;13.23;;;11.80;1.00;;;;;;5087267;27;20449;-79
2021/11/03 10:40:23;;;;;;;15.00;13.40;;;12.00;1.00;;;;;;5100009;27;20448;-78
2021/11/03 10:42:54;;;;;;;12.90;11.60;;;12.20;1.00;;;;;;5097738;27;21584;-79
2021/11/03 10:45:26;;;;;;;12.80;11.50;;;12.20;1.00;;;;;;5101502;27;20454;-79
2021/11/03 10:47:56;;;;;;;15.90;13.67;;;12.20;1.00;;;;;;5101699;27;20429;-79
2021/11/03 10:50:33;;;;;;;14.20;10.90;;;12.30;1.00;;;;;;5081191;27;20475;-79
2021/11/03 10:53:17;;;;;;;11.90;10.70;;;12.60;1.00;;;;;;5099355;27;20472;-79
2021/11/03 10:55:49;;;;;;;11.13;9.93;;;13.10;1.00;;;;;;5094730;27;20464;-79
2021/11/03 10:58:24;;;;;;;11.40;9.90;;;13.40;1.00;;;;;;5099452;27;20472;-78
2021/11/03 11:01:01;;;;;;;11.80;10.70;;;13.60;1.00;;;;;;5104283;27;20464;-78
2021/11/03 11:03:31;;;;;;;10.87;9.80;;;13.90;1.00;;;;;;5097209;27;20537;-80
2021/11/03 11:06:06;;;;;;;10.67;9.57;;;14.10;1.00;;;;;;5074490;27;21098;-82
2021/11/03 11:08:38;;;;;;;12.70;8.70;;;14.20;1.00;;;;;;5103716;27;20447;-80
2021/11/03 11:11:09;;;;;;;10.57;9.40;;;14.00;1.00;;;;;;5103441;27;20412;-80
2021/11/03 11:13:39;;;;;;;10.17;9.17;;;14.00;1.00;;;;;;5109824;27;20453;-80
2021/11/03 11:16:20;;;;;;;9.07;8.20;;;13.70;1.00;;;;;;5129598;27;20426;-80
2021/11/03 11:18:57;;;;;;;9.40;8.40;;;13.40;1.00;;;;;;5112286;27;20412;-81
2021/11/03 11:21:43;;;;;;;10.40;9.40;;;13.20;1.00;;;;;;5101071;27;25903;-78
2021/11/03 11:24:18;;;;;;;9.23;7.83;;;13.20;1.00;;;;;;5097424;27;21662;-81
2021/11/03 11:26:52;;;;;;;9.03;8.10;;;13.20;1.00;;;;;;5099616;27;20460;-81
2021/11/03 11:29:26;;;;;;;9.33;8.43;;;13.60;1.00;;;;;;5105863;27;20460;-79
2021/11/03 11:31:59;;;;;;;8.20;7.23;;;13.90;1.00;;;;;;5092807;27;20413;-81
2021/11/03 11:34:48;;;;;;;9.20;8.30;;;14.20;1.00;;;;;;5107528;27;21860;-80
2021/11/03 11:37:21;;;;;;;9.43;7.50;;;14.20;1.00;;;;;;5107939;27;20465;-80
2021/11/03 11:39:56;;;;;;;7.73;7.03;;;14.40;1.00;;;;;;5100669;27;21092;-81
2021/11/03 11:42:31;;;;;;;8.73;7.83;;;14.50;1.00;;;;;;5106967;27;20472;-81
2021/11/03 11:45:02;;;;;;;8.33;7.53;;;14.60;1.00;;;;;;5107835;27;20436;-79
2021/11/03 11:47:36;;;;;;;9.27;8.23;;;14.40;1.00;;;;;;5104295;27;21047;-81
2021/11/03 11:50:08;;;;;;;9.60;7.67;;;14.40;1.00;;;;;;5107068;27;21430;-82
2021/11/03 11:52:35;;;;;;;7.43;6.73;;;15.70;1.00;;;;;;5103851;27;20570;-79
2021/11/03 11:55:35;;;;;;;7.80;6.67;;;17.90;1.00;;;;;;5107553;27;20437;-79
2021/11/03 11:58:24;;;;;;;7.43;6.73;;;20.00;1.00;;;;;;5116931;27;20436;-80
2021/11/03 12:01:16;;;;;;;7.80;6.07;;;21.10;1.00;;;;;;5107368;27;21052;-79
2021/11/03 12:03:45;;;;;;;6.77;6.17;;;22.00;1.00;;;;;;5102969;27;20503;-80
2021/11/03 12:06:11;;;;;;;7.47;6.10;;;23.30;1.00;;;;;;5103778;27;20476;-80
2021/11/03 12:08:56;;;;;;;8.23;6.77;;;24.10;1.00;;;;;;5100177;27;21115;-79
2021/11/03 12:11:45;;;;;;;7.30;6.57;;;24.50;1.00;;;;;;5105880;27;20450;-81
2021/11/03 12:14:29;;;;;;;7.07;6.30;;;24.90;1.00;;;;;;5122642;27;20493;-79
2021/11/03 12:17:19;;;;;;;6.43;5.93;;;24.70;1.00;;;;;;5131679;27;20473;-79
2021/11/03 12:19:53;;;;;;;7.13;6.43;;;24.10;1.00;;;;;;5083069;27;20463;-80
2021/11/03 12:22:50;;;;;;;7.60;6.90;;;23.20;1.00;;;;;;5103847;27;20434;-82
2021/11/03 12:25:44;;;;;;;7.13;6.53;;;22.30;1.00;;;;;;5102790;27;21051;-81
2021/11/03 12:28:45;;;;;;;8.80;5.37;;;22.60;1.00;;;;;;5079464;27;20542;-80
2021/11/03 12:31:23;;;;;;;7.30;6.60;;;23.00;1.00;;;;;;5104822;27;20525;-79
2021/11/03 12:34:27;;;;;;;6.20;5.70;;;23.00;1.00;;;;;;5104843;27;20476;-81
2021/11/03 12:36:58;;;;;;;7.27;6.67;;;22.60;1.00;;;;;;5078228;27;20461;-79
2021/11/03 12:39:53;;;;;;;7.10;6.30;;;21.90;1.00;;;;;;5105779;27;20498;-79
2021/11/03 12:42:31;;;;;;;7.20;6.60;;;20.80;1.00;;;;;;5079138;27;21336;-80
2021/11/03 12:45:11;;;;;;;8.40;7.70;;;19.80;1.00;;;;;;5101433;27;20458;-80
2021/11/03 12:47:48;;;;;;;12.90;11.37;;;18.60;1.00;;;;;;5107152;27;21271;-80
2021/11/03 12:50:17;;;;;;;8.17;7.20;;;17.50;1.00;;;;;;5092445;27;20460;-80
2021/11/03 12:52:45;;;;;;;8.40;7.63;;;16.50;1.00;;;;;;5109302;27;20463;-80
2021/11/03 12:55:24;;;;;;;10.87;9.70;;;16.00;1.00;;;;;;5114349;27;20442;-80
2021/11/03 12:57:52;;;;;;;8.77;7.87;;;15.50;1.00;;;;;;5112205;27;20468;-81
2021/11/03 13:00:21;;;;;;;9.63;7.83;;;15.30;1.00;;;;;;5102624;27;20466;-80
2021/11/03 13:02:56;;;;;;;6.90;6.20;;;15.30;1.00;;;;;;5106078;27;20941;-80